createdAt,value
2018-03-18T00:01:32.210Z,-2.80
2018-03-18T00:03:59.694Z,-2.80
2018-03-18T00:06:27.162Z,-2.80
2018-03-18T00:08:54.747Z,-2.80
2018-03-18T00:11:22.223Z,-2.70
2018-03-18T00:13:50.454Z,-2.60
2018-03-18T00:16:17.931Z,-2.80
2018-03-18T00:18:45.560Z,-2.70
2018-03-18T00:21:13.027Z,-2.80
2018-03-18T00:23:40.498Z,-2.50
2018-03-18T00:26:07.974Z,-2.80
2018-03-18T00:28:35.442Z,-2.80
2018-03-18T00:31:03.708Z,-2.70
2018-03-18T00:36:05.787Z,-2.80
2018-03-18T00:38:33.442Z,-2.70
2018-03-18T00:41:02.427Z,-2.90
2018-03-18T00:43:29.903Z,-3.00
2018-03-18T00:45:57.369Z,-2.70
2018-03-18T00:48:24.850Z,-2.70
2018-03-18T00:50:53.087Z,-2.80
2018-03-18T00:53:20.566Z,-3.00
2018-03-18T00:55:48.801Z,-2.80
2018-03-18T00:58:16.270Z,-3.10
2018-03-18T01:00:43.738Z,-2.80
2018-03-18T01:03:11.218Z,-3.20
2018-03-18T01:05:39.437Z,-2.70
2018-03-18T01:08:06.986Z,-2.80
2018-03-18T01:10:34.489Z,-2.70
2018-03-18T01:13:01.962Z,-2.90
2018-03-18T01:15:29.517Z,-3.00
2018-03-18T01:17:57.081Z,-2.80
2018-03-18T01:20:24.630Z,-2.70
2018-03-18T01:22:52.864Z,-2.70
2018-03-18T01:25:20.366Z,-2.80
2018-03-18T01:27:47.917Z,-2.70
2018-03-18T01:30:15.474Z,-3.00
2018-03-18T01:32:43.038Z,-2.80
2018-03-18T01:35:10.510Z,-3.00
2018-03-18T01:37:37.985Z,-2.90
2018-03-18T01:40:06.217Z,-3.10
2018-03-18T01:42:33.683Z,-3.20
2018-03-18T01:45:01.153Z,-3.20
2018-03-18T01:47:28.708Z,-3.00
2018-03-18T01:49:56.178Z,-3.40
2018-03-18T01:52:23.656Z,-3.20
2018-03-18T01:54:51.910Z,-3.00
2018-03-18T01:57:19.371Z,-3.30
2018-03-18T01:59:46.847Z,-3.10
2018-03-18T02:02:15.083Z,-3.00
2018-03-18T02:04:42.647Z,-3.30
2018-03-18T02:07:10.109Z,-2.90
2018-03-18T02:09:37.595Z,-3.20
2018-03-18T02:12:05.860Z,-3.00
2018-03-18T02:14:34.102Z,-2.90
2018-03-18T02:17:01.563Z,-3.10
2018-03-18T02:19:29.307Z,-3.00
2018-03-18T02:21:56.771Z,-2.90
2018-03-18T02:24:24.246Z,-3.10
2018-03-18T02:26:51.816Z,-3.20
2018-03-18T02:29:19.378Z,-3.20
2018-03-18T02:31:46.849Z,-3.10
2018-03-18T02:34:14.324Z,-3.40
2018-03-18T02:36:42.563Z,-3.40
2018-03-18T02:39:10.043Z,-3.30
2018-03-18T02:41:37.502Z,-3.50
2018-03-18T02:44:05.045Z,-3.20
2018-03-18T02:46:32.622Z,-3.20
2018-03-18T02:49:00.850Z,-3.30
2018-03-18T02:51:28.327Z,-3.40
2018-03-18T02:53:55.907Z,-3.50
2018-03-18T02:56:23.460Z,-3.40
2018-03-18T02:58:50.937Z,-3.50
2018-03-18T03:01:19.182Z,-3.50
2018-03-18T03:03:46.642Z,-3.50
2018-03-18T03:06:14.223Z,-3.30
2018-03-18T03:08:41.774Z,-3.70
2018-03-18T03:11:09.438Z,-3.40
2018-03-18T03:13:36.905Z,-3.50
2018-03-18T03:16:04.527Z,-3.80
2018-03-18T03:18:32.018Z,-3.60
2018-03-18T03:20:59.489Z,-3.70
2018-03-18T03:23:27.749Z,-3.70
2018-03-18T03:25:55.314Z,-3.60
2018-03-18T03:28:22.783Z,-3.80
2018-03-18T03:30:51.034Z,-3.70
2018-03-18T03:33:18.614Z,-3.70
2018-03-18T03:35:46.086Z,-3.60
2018-03-18T03:38:14.317Z,-3.80
2018-03-18T03:40:41.800Z,-4.00
2018-03-18T03:43:09.251Z,-3.70
2018-03-18T03:45:36.730Z,-4.00
2018-03-18T03:48:04.973Z,-3.90
2018-03-18T03:50:32.472Z,-4.00
2018-03-18T03:53:00.723Z,-4.10
2018-03-18T03:55:28.202Z,-3.70
2018-03-18T03:57:56.443Z,-4.20
2018-03-18T04:00:23.922Z,-3.90
2018-03-18T04:02:51.474Z,-4.10
2018-03-18T04:05:18.967Z,-4.20
2018-03-18T04:07:46.441Z,-4.20
2018-03-18T04:10:13.907Z,-3.90
2018-03-18T04:12:41.375Z,-4.10
2018-03-18T04:15:08.855Z,-4.30
2018-03-18T04:17:36.319Z,-4.00
2018-03-18T04:20:03.794Z,-4.00
2018-03-18T04:22:32.047Z,-4.30
2018-03-18T04:24:59.510Z,-4.00
2018-03-18T04:27:26.983Z,-4.20
2018-03-18T04:29:54.463Z,-4.10
2018-03-18T04:32:21.987Z,-4.20
2018-03-18T04:34:49.458Z,-4.20
2018-03-18T04:37:17.008Z,-4.30
2018-03-18T04:39:44.484Z,-4.40
2018-03-18T04:42:12.707Z,-4.40
2018-03-18T04:44:40.206Z,-4.00
2018-03-18T04:47:07.671Z,-4.40
2018-03-18T04:49:35.919Z,-3.90
2018-03-18T04:52:03.565Z,-4.20
2018-03-18T04:54:30.967Z,-3.90
2018-03-18T04:56:59.206Z,-4.10
2018-03-18T04:59:26.674Z,-4.40
2018-03-18T05:01:54.152Z,-4.20
2018-03-18T05:04:21.618Z,-4.60
2018-03-18T05:06:49.875Z,-4.20
2018-03-18T05:09:17.334Z,-4.50
2018-03-18T05:11:44.902Z,-4.30
2018-03-18T05:14:12.368Z,-4.60
2018-03-18T05:16:40.620Z,-4.60
2018-03-18T05:19:08.078Z,-4.50
2018-03-18T05:21:35.663Z,-4.60
2018-03-18T05:24:03.152Z,-4.50
2018-03-18T05:26:30.653Z,-4.40
2018-03-18T05:28:58.123Z,-4.60
2018-03-18T05:31:25.590Z,-4.50
2018-03-18T05:33:53.818Z,-4.60
2018-03-18T05:36:21.307Z,-4.60
2018-03-18T05:38:48.787Z,-4.60
2018-03-18T05:41:18.455Z,-4.80
2018-03-18T05:43:45.934Z,-4.70
2018-03-18T05:46:13.721Z,-4.70
2018-03-18T05:48:41.255Z,-4.70
2018-03-18T05:51:08.730Z,-4.80
2018-03-18T05:53:36.199Z,-4.90
2018-03-18T05:56:04.443Z,-4.90
2018-03-18T05:58:31.969Z,-4.40
2018-03-18T06:00:59.546Z,-4.60
2018-03-18T06:03:27.046Z,-4.60
2018-03-18T06:05:55.916Z,-4.60
2018-03-18T06:08:23.383Z,-4.60
2018-03-18T06:10:50.860Z,-4.50
2018-03-18T06:13:19.096Z,-4.50
2018-03-18T06:15:48.235Z,-4.50
2018-03-18T06:18:18.788Z,-4.60
2018-03-18T06:20:46.265Z,-4.40
2018-03-18T06:23:13.732Z,-4.50
2018-03-18T06:25:41.207Z,-4.60
2018-03-18T06:28:08.667Z,-4.20
2018-03-18T06:30:36.228Z,-4.50
2018-03-18T06:33:03.695Z,-4.40
2018-03-18T06:35:31.243Z,-4.20
2018-03-18T06:37:59.527Z,-4.40
2018-03-18T06:40:26.999Z,-4.50
2018-03-18T06:42:55.233Z,-4.30
2018-03-18T06:45:22.702Z,-4.60
2018-03-18T06:47:50.273Z,-4.30
2018-03-18T06:50:17.826Z,-4.50
2018-03-18T06:52:45.299Z,-4.50
2018-03-18T06:55:13.611Z,-4.40
2018-03-18T06:57:41.351Z,-4.30
2018-03-18T07:00:10.276Z,-4.30
2018-03-18T07:02:37.802Z,-4.20
2018-03-18T07:05:06.039Z,-4.40
2018-03-18T07:07:33.628Z,-4.20
2018-03-18T07:10:01.868Z,-4.40
2018-03-18T07:12:29.338Z,-4.40
2018-03-18T07:14:56.911Z,-4.10
2018-03-18T07:17:24.467Z,-4.00
2018-03-18T07:19:51.939Z,-4.20
2018-03-18T07:22:19.475Z,-4.20
2018-03-18T07:24:46.962Z,-4.40
2018-03-18T07:27:15.208Z,-4.30
2018-03-18T07:29:42.670Z,-4.30
2018-03-18T07:32:10.238Z,-4.20
2018-03-18T07:34:38.495Z,-4.10
2018-03-18T07:37:06.081Z,-3.90
2018-03-18T07:39:33.543Z,-3.80
2018-03-18T07:42:01.074Z,-4.00
2018-03-18T07:44:28.558Z,-3.80
2018-03-18T07:46:57.534Z,-3.90
2018-03-18T07:49:25.002Z,-3.70
2018-03-18T07:51:52.565Z,-4.00
2018-03-18T07:54:20.127Z,-4.00
2018-03-18T07:56:47.611Z,-3.90
2018-03-18T07:59:15.843Z,-3.50
2018-03-18T08:01:43.310Z,-3.70
2018-03-18T08:04:10.787Z,-3.30
2018-03-18T08:06:46.523Z,-3.30
2018-03-18T08:09:14.092Z,-3.50
2018-03-18T08:11:41.573Z,-3.40
2018-03-18T08:14:10.504Z,-3.20
2018-03-18T08:16:38.707Z,-3.30
2018-03-18T08:19:06.186Z,-3.60
2018-03-18T08:21:34.414Z,-3.40
2018-03-18T08:24:01.898Z,-3.70
2018-03-18T08:26:29.375Z,-3.90
2018-03-18T08:28:57.641Z,-3.80
2018-03-18T08:31:25.195Z,-3.90
2018-03-18T08:33:52.668Z,-3.70
2018-03-18T08:36:20.912Z,-3.50
2018-03-18T08:38:48.372Z,-3.60
2018-03-18T08:41:15.847Z,-3.50
2018-03-18T08:43:43.316Z,-3.70
2018-03-18T08:46:11.643Z,-3.60
2018-03-18T08:48:39.104Z,-3.40
2018-03-18T08:51:06.587Z,-3.50
2018-03-18T08:53:34.055Z,-3.40
2018-03-18T08:56:01.531Z,-3.40
2018-03-18T08:58:29.767Z,-3.60
2018-03-18T09:00:57.320Z,-3.40
2018-03-18T09:03:24.907Z,-3.30
2018-03-18T09:05:52.600Z,-3.50
2018-03-18T09:08:20.842Z,-3.30
2018-03-18T09:10:48.299Z,-3.50
2018-03-18T09:13:15.854Z,-3.60
2018-03-18T09:18:37.015Z,-3.30
2018-03-18T09:21:05.263Z,-3.30
2018-03-18T09:23:32.823Z,-3.30
2018-03-18T09:26:00.311Z,-3.40
2018-03-18T09:28:28.563Z,-3.00
2018-03-18T09:30:56.125Z,-3.30
2018-03-18T09:33:23.608Z,-2.80
2018-03-18T09:35:51.861Z,-2.80
2018-03-18T09:38:19.347Z,-2.50
2018-03-18T09:40:47.575Z,-2.20
2018-03-18T09:43:15.056Z,-2.20
2018-03-18T09:45:42.626Z,-2.20
2018-03-18T09:48:10.094Z,-2.40
2018-03-18T09:50:38.333Z,-2.80
2018-03-18T09:53:05.842Z,-2.90
2018-03-18T09:55:33.319Z,-2.70
2018-03-18T09:58:00.797Z,-2.60
2018-03-18T10:00:28.391Z,-2.80
2018-03-18T10:02:55.856Z,-2.40
2018-03-18T10:05:24.113Z,-2.40
2018-03-18T10:07:53.265Z,-2.20
2018-03-18T10:10:20.880Z,-2.20
2018-03-18T10:12:49.128Z,-2.10
2018-03-18T10:15:16.619Z,-2.00
2018-03-18T10:17:44.860Z,-1.70
2018-03-18T10:20:12.369Z,-1.70
2018-03-18T10:22:40.610Z,-2.00
2018-03-18T10:25:08.081Z,-1.70
2018-03-18T10:27:35.558Z,-1.80
2018-03-18T10:30:03.797Z,-1.60
2018-03-18T10:32:31.275Z,-1.90
2018-03-18T10:34:58.772Z,-1.50
2018-03-18T10:37:26.264Z,-1.50
2018-03-18T10:39:53.868Z,-1.50
2018-03-18T10:42:22.107Z,-1.70
2018-03-18T10:44:49.603Z,-1.40
2018-03-18T10:47:17.835Z,-1.90
2018-03-18T10:49:45.317Z,-1.90
2018-03-18T10:52:12.803Z,-1.50
2018-03-18T10:54:40.271Z,-1.40
2018-03-18T10:57:07.754Z,-1.50
2018-03-18T10:59:35.239Z,-1.50
2018-03-18T11:02:05.520Z,-1.30
2018-03-18T11:04:33.003Z,-1.40
2018-03-18T11:07:01.147Z,-1.40
2018-03-18T11:09:29.472Z,-1.40
2018-03-18T11:11:56.951Z,-1.40
2018-03-18T11:14:25.179Z,-1.30
2018-03-18T11:16:52.660Z,-1.20
2018-03-18T11:19:20.135Z,-1.10
2018-03-18T11:21:48.391Z,-0.90
2018-03-18T11:24:15.886Z,-1.20
2018-03-18T11:26:44.135Z,-1.00
2018-03-18T11:29:11.617Z,-1.00
2018-03-18T11:31:39.848Z,-0.90
2018-03-18T11:34:07.345Z,-0.80
2018-03-18T11:36:35.578Z,-0.70
2018-03-18T11:39:03.078Z,-0.70
2018-03-18T11:41:30.549Z,-1.00
2018-03-18T11:43:58.798Z,-0.70
2018-03-18T11:46:26.267Z,-0.90
2018-03-18T11:48:54.514Z,-0.80
2018-03-18T11:51:22.003Z,-0.80
2018-03-18T11:53:50.251Z,-0.50
2018-03-18T11:56:17.721Z,-0.70
2018-03-18T11:58:45.196Z,-0.50
2018-03-18T12:01:13.427Z,-0.40
2018-03-18T12:03:40.925Z,-0.30
2018-03-18T12:06:08.390Z,0.00
2018-03-18T12:08:48.455Z,-0.30
2018-03-18T12:11:16.690Z,-0.30
2018-03-18T12:13:44.175Z,-0.40
2018-03-18T12:16:12.419Z,-0.30
2018-03-18T12:18:39.890Z,-0.30
2018-03-18T12:21:07.366Z,-0.20
2018-03-18T12:23:35.611Z,0.00
2018-03-18T12:28:56.606Z,0.20
2018-03-18T12:31:24.032Z,0.30
2018-03-18T12:33:52.291Z,0.50
2018-03-18T12:36:19.744Z,0.50
2018-03-18T12:38:47.572Z,0.60
2018-03-18T12:41:15.027Z,0.20
2018-03-18T12:43:42.508Z,0.50
2018-03-18T12:46:09.976Z,0.60
2018-03-18T12:48:37.451Z,0.50
2018-03-18T12:51:04.915Z,0.30
2018-03-18T12:53:32.406Z,0.40
2018-03-18T12:55:59.905Z,0.40
2018-03-18T12:58:27.395Z,0.90
2018-03-18T13:00:55.623Z,0.80
2018-03-18T13:03:23.087Z,0.70
2018-03-18T13:05:51.316Z,1.00
2018-03-18T13:08:19.552Z,0.90
2018-03-18T13:10:47.019Z,0.70
2018-03-18T13:13:14.491Z,0.90
2018-03-18T13:15:41.947Z,1.30
2018-03-18T13:18:09.419Z,1.30
2018-03-18T13:20:37.661Z,1.70
2018-03-18T13:23:05.133Z,1.40
2018-03-18T13:25:32.604Z,1.70
2018-03-18T13:28:00.829Z,1.30
2018-03-18T13:30:28.300Z,1.20
2018-03-18T13:32:55.764Z,1.20
2018-03-18T13:35:23.234Z,0.90
2018-03-18T13:37:50.752Z,0.80
2018-03-18T13:40:18.179Z,1.30
2018-03-18T13:42:46.412Z,1.00
2018-03-18T13:45:13.879Z,1.00
2018-03-18T13:47:41.700Z,1.00
2018-03-18T13:50:09.174Z,1.00
2018-03-18T13:52:36.659Z,1.00
2018-03-18T13:55:04.144Z,1.40
2018-03-18T13:57:32.396Z,0.90
2018-03-18T13:59:59.867Z,1.20
2018-03-18T14:02:27.337Z,1.10
2018-03-18T14:04:54.803Z,1.30
2018-03-18T14:07:23.056Z,1.50
2018-03-18T14:09:50.518Z,1.10
2018-03-18T14:12:17.998Z,1.60
2018-03-18T14:14:46.222Z,1.20
2018-03-18T14:17:14.507Z,1.30
2018-03-18T14:19:41.988Z,1.00
2018-03-18T14:22:09.461Z,1.40
2018-03-18T14:24:37.690Z,1.20
2018-03-18T14:27:05.155Z,1.00
2018-03-18T14:29:32.916Z,1.10
2018-03-18T14:32:00.408Z,1.20
2018-03-18T14:34:27.867Z,1.20
2018-03-18T14:36:55.369Z,1.10
2018-03-18T14:39:22.844Z,1.10
2018-03-18T14:41:50.307Z,1.30
2018-03-18T14:44:17.772Z,1.90
2018-03-18T14:46:45.236Z,1.90
2018-03-18T14:49:12.955Z,2.00
2018-03-18T14:51:40.420Z,2.00
2018-03-18T14:54:07.882Z,2.00
2018-03-18T14:56:35.397Z,2.10
2018-03-18T14:59:02.859Z,2.20
2018-03-18T15:01:31.130Z,2.30
2018-03-18T15:03:58.614Z,2.50
2018-03-18T15:06:26.839Z,2.50
2018-03-18T15:08:54.346Z,2.40
2018-03-18T15:11:21.807Z,2.70
2018-03-18T15:13:49.280Z,2.40
2018-03-18T15:16:16.742Z,2.60
2018-03-18T15:18:44.207Z,2.20
2018-03-18T15:21:11.683Z,2.30
2018-03-18T15:23:39.186Z,2.10
2018-03-18T15:26:07.433Z,2.10
2018-03-18T15:28:34.926Z,1.60
2018-03-18T15:31:02.403Z,2.10
2018-03-18T15:33:29.865Z,2.00
2018-03-18T15:35:57.334Z,1.70
2018-03-18T15:38:24.794Z,1.60
2018-03-18T15:40:52.269Z,1.80
2018-03-18T15:43:19.733Z,1.50
2018-03-18T15:45:47.207Z,2.00
2018-03-18T15:48:14.659Z,1.70
2018-03-18T15:50:42.142Z,2.10
2018-03-18T15:53:10.371Z,1.90
2018-03-18T15:55:37.888Z,1.70
2018-03-18T15:58:05.372Z,1.90
2018-03-18T16:00:32.854Z,2.20
2018-03-18T16:03:00.407Z,2.10
2018-03-18T16:05:28.260Z,2.00
2018-03-18T16:07:55.731Z,2.00
2018-03-18T16:10:23.263Z,1.50
2018-03-18T16:12:50.725Z,1.60
2018-03-18T16:15:18.203Z,1.80
2018-03-18T16:17:45.705Z,1.60
2018-03-18T16:20:13.271Z,1.70
2018-03-18T16:22:42.266Z,1.30
2018-03-18T16:25:10.518Z,1.10
2018-03-18T16:27:37.989Z,1.30
2018-03-18T16:30:17.371Z,1.50
2018-03-18T16:32:44.827Z,1.10
2018-03-18T16:35:12.311Z,0.90
2018-03-18T16:37:39.771Z,0.80
2018-03-18T16:40:07.260Z,0.90
2018-03-18T16:42:34.756Z,1.00
2018-03-18T16:45:02.252Z,0.70
2018-03-18T16:47:30.505Z,1.00
2018-03-18T16:49:57.994Z,0.70
2018-03-18T16:52:25.483Z,0.70
2018-03-18T16:54:53.723Z,0.30
2018-03-18T16:57:21.244Z,0.60
2018-03-18T16:59:48.842Z,0.40
2018-03-18T17:02:16.335Z,0.40
2018-03-18T17:04:44.595Z,0.30
2018-03-18T17:07:12.863Z,0.30
2018-03-18T17:09:40.343Z,0.30
2018-03-18T17:12:08.655Z,0.20
2018-03-18T17:14:36.124Z,0.30
2018-03-18T17:17:03.602Z,0.10
2018-03-18T17:19:31.087Z,0.20
2018-03-18T17:21:59.404Z,0.20
2018-03-18T17:24:26.879Z,0.00
2018-03-18T17:26:54.399Z,-0.30
2018-03-18T17:29:22.574Z,0.00
2018-03-18T17:31:50.074Z,-0.20
2018-03-18T17:34:17.562Z,0.00
2018-03-18T17:36:45.047Z,0.10
2018-03-18T17:39:13.502Z,-0.10
2018-03-18T17:41:40.982Z,-0.30
2018-03-18T17:44:09.224Z,-0.10
2018-03-18T17:51:22.047Z,-0.20
2018-03-18T17:54:01.351Z,-0.40
2018-03-18T17:56:37.059Z,-0.40
2018-03-18T17:59:04.547Z,-0.30
2018-03-18T18:01:32.795Z,-0.70
2018-03-18T18:04:00.333Z,-0.50
2018-03-18T18:06:27.815Z,-0.30
2018-03-18T18:08:55.303Z,-0.30
2018-03-18T18:11:23.968Z,-0.40
2018-03-18T18:13:51.446Z,-0.40
2018-03-18T18:16:19.694Z,-0.60
2018-03-18T18:18:47.178Z,-0.70
2018-03-18T18:21:15.428Z,-0.40
2018-03-18T18:23:42.900Z,-0.40
2018-03-18T18:26:11.164Z,-0.70
2018-03-18T18:28:38.667Z,-0.80
2018-03-18T18:31:06.160Z,-0.40
2018-03-18T18:33:33.633Z,-0.60
2018-03-18T18:36:01.112Z,-1.00
2018-03-18T18:38:28.583Z,-1.00
2018-03-18T18:40:57.117Z,-1.20
2018-03-18T18:43:25.535Z,-1.20
2018-03-18T18:45:52.987Z,-1.10
2018-03-18T18:48:20.482Z,-1.40
2018-03-18T18:50:48.816Z,-1.20
2018-03-18T18:53:16.309Z,-1.30
2018-03-18T18:55:44.541Z,-1.60
2018-03-18T18:58:12.063Z,-1.40
2018-03-18T19:00:39.554Z,-1.30
2018-03-18T19:03:07.155Z,-1.60
2018-03-18T19:05:34.569Z,-1.60
2018-03-18T19:08:02.067Z,-1.50
2018-03-18T19:10:30.321Z,-1.70
2018-03-18T19:12:58.142Z,-1.40
2018-03-18T19:15:25.749Z,-1.70
2018-03-18T19:17:53.402Z,-1.60
2018-03-18T19:20:20.915Z,-1.50
2018-03-18T19:22:48.406Z,-1.50
2018-03-18T19:25:15.886Z,-1.40
2018-03-18T19:27:43.376Z,-1.40
2018-03-18T19:30:10.862Z,-1.40
2018-03-18T19:32:38.362Z,-1.50
2018-03-18T19:35:05.845Z,-1.50
2018-03-18T19:37:34.127Z,-1.80
2018-03-18T19:40:01.626Z,-1.50
2018-03-18T19:42:29.143Z,-1.70
2018-03-18T19:44:56.660Z,-1.80
2018-03-18T19:47:24.133Z,-2.00
2018-03-18T19:49:51.751Z,-1.80
2018-03-18T19:52:19.983Z,-1.90
2018-03-18T19:54:49.252Z,-1.90
2018-03-18T19:57:16.740Z,-2.30
2018-03-18T19:59:44.971Z,-2.00
2018-03-18T20:02:12.490Z,-2.30
2018-03-18T20:04:39.988Z,-2.40
2018-03-18T20:07:07.475Z,-2.40
2018-03-18T20:09:35.024Z,-2.20
2018-03-18T20:12:02.518Z,-2.40
2018-03-18T20:14:30.760Z,-2.20
2018-03-18T20:16:58.300Z,-2.40
2018-03-18T20:19:25.775Z,-2.40
2018-03-18T20:21:53.279Z,-2.40
2018-03-18T20:24:21.528Z,-2.50
2018-03-18T20:26:48.994Z,-2.60
2018-03-18T20:29:17.239Z,-2.70
2018-03-18T20:31:44.728Z,-2.50
2018-03-18T20:34:12.995Z,-2.70
2018-03-18T20:36:40.488Z,-2.50
2018-03-18T20:39:07.973Z,-2.50
2018-03-18T20:41:35.454Z,-2.80
2018-03-18T20:44:02.959Z,-2.80
2018-03-18T20:46:30.484Z,-2.50
2018-03-18T20:48:57.928Z,-3.00
2018-03-18T20:51:25.409Z,-3.00
2018-03-18T20:53:53.666Z,-2.90
2018-03-18T20:56:21.158Z,-2.80
2018-03-18T20:58:49.420Z,-2.90
2018-03-18T21:01:16.887Z,-3.00
2018-03-18T21:03:45.140Z,-3.10
2018-03-18T21:06:12.649Z,-3.10
2018-03-18T21:08:40.896Z,-3.40
2018-03-18T21:11:08.339Z,-3.50
2018-03-18T21:13:35.823Z,-3.40
2018-03-18T21:16:03.305Z,-3.10
2018-03-18T21:18:30.779Z,-3.30
2018-03-18T21:20:58.294Z,-3.50
2018-03-18T21:23:25.738Z,-3.30
2018-03-18T21:25:54.004Z,-3.30
2018-03-18T21:28:21.482Z,-3.20
2018-03-18T21:30:49.730Z,-3.30
2018-03-18T21:33:17.295Z,-3.10
2018-03-18T21:35:45.305Z,-3.40
2018-03-18T21:38:12.789Z,-3.50
2018-03-18T21:40:40.268Z,-3.30
2018-03-18T21:43:07.756Z,-3.30
2018-03-18T21:45:35.992Z,-3.40
2018-03-18T21:48:03.471Z,-3.40
2018-03-18T21:50:30.942Z,-3.60
2018-03-18T21:52:59.203Z,-3.40
2018-03-18T21:55:26.670Z,-3.50
2018-03-18T21:57:54.169Z,-3.60
2018-03-18T22:00:21.660Z,-3.30
2018-03-18T22:02:49.143Z,-3.40
2018-03-18T22:05:16.695Z,-3.70
2018-03-18T22:07:44.168Z,-3.40
2018-03-18T22:10:11.627Z,-3.60
2018-03-18T22:12:39.871Z,-3.40
2018-03-18T22:15:07.339Z,-3.60
2018-03-18T22:17:34.819Z,-3.60
2018-03-18T22:20:03.057Z,-3.80
2018-03-18T22:22:30.532Z,-3.60
2018-03-18T22:24:58.007Z,-3.70
2018-03-18T22:27:25.482Z,-3.50
2018-03-18T22:29:53.723Z,-3.40
2018-03-18T22:32:21.203Z,-3.40
2018-03-18T22:34:49.436Z,-3.40
2018-03-18T22:37:16.920Z,-3.60
2018-03-18T22:39:44.383Z,-3.60
2018-03-18T22:42:11.864Z,-3.40
2018-03-18T22:44:40.100Z,-3.50
2018-03-18T22:47:07.591Z,-3.70
2018-03-18T22:49:35.823Z,-3.60
2018-03-18T22:52:03.292Z,-3.70
2018-03-18T22:54:30.767Z,-3.50
2018-03-18T22:56:58.239Z,-3.70
2018-03-18T22:59:26.493Z,-3.50
2018-03-18T23:01:53.978Z,-3.50
2018-03-18T23:04:22.229Z,-3.80
2018-03-18T23:06:49.691Z,-3.70
2018-03-18T23:09:17.167Z,-3.60
2018-03-18T23:11:45.404Z,-3.80
2018-03-18T23:14:13.639Z,-3.90
2018-03-18T23:16:41.114Z,-4.10
2018-03-18T23:19:08.599Z,-3.80
2018-03-18T23:21:36.063Z,-3.90
2018-03-18T23:24:03.555Z,-4.10
2018-03-18T23:26:31.791Z,-3.80
2018-03-18T23:28:59.271Z,-4.00
2018-03-18T23:31:26.742Z,-3.80
2018-03-18T23:33:54.994Z,-3.90
2018-03-18T23:36:22.459Z,-4.00
2018-03-18T23:38:49.939Z,-4.30
2018-03-18T23:41:18.172Z,-3.90
2018-03-18T23:43:45.651Z,-4.10
2018-03-18T23:46:13.113Z,-4.20
2018-03-18T23:48:40.623Z,-3.90
2018-03-18T23:51:08.095Z,-4.00
2018-03-18T23:53:36.339Z,-4.00
2018-03-18T23:56:03.804Z,-4.20
2018-03-18T23:58:31.288Z,-4.20
